createdAt,value
2022-12-25T00:01:23.609Z,8.87
2022-12-25T00:03:52.035Z,7.53
2022-12-25T00:06:19.651Z,7.20
2022-12-25T00:08:46.847Z,7.17
2022-12-25T00:11:17.674Z,7.43
2022-12-25T00:13:47.485Z,7.13
2022-12-25T00:16:19.974Z,9.53
2022-12-25T00:18:48.111Z,7.70
2022-12-25T00:21:15.259Z,7.40
2022-12-25T00:23:43.112Z,6.43
2022-12-25T00:26:17.102Z,7.40
2022-12-25T00:28:44.667Z,7.40
2022-12-25T00:31:15.665Z,7.33
2022-12-25T00:33:46.727Z,7.43
2022-12-25T00:36:16.957Z,8.03
2022-12-25T00:38:44.535Z,7.03
2022-12-25T00:41:18.254Z,8.13
2022-12-25T00:43:45.534Z,10.20
2022-12-25T00:46:14.069Z,7.17
2022-12-25T00:48:41.762Z,8.40
2022-12-25T00:51:12.193Z,5.80
2022-12-25T00:53:39.616Z,8.13
2022-12-25T00:56:07.508Z,6.60
2022-12-25T00:58:35.505Z,11.57
2022-12-25T01:01:04.167Z,9.20
2022-12-25T01:03:31.616Z,7.40
2022-12-25T01:06:02.664Z,6.90
2022-12-25T01:08:33.395Z,6.53
2022-12-25T01:11:04.556Z,10.07
2022-12-25T01:13:34.637Z,8.67
2022-12-25T01:16:10.818Z,8.40
2022-12-25T01:18:39.307Z,13.80
2022-12-25T01:21:09.212Z,14.40
2022-12-25T01:23:36.981Z,10.93
2022-12-25T01:26:10.193Z,9.67
2022-12-25T01:28:38.504Z,7.00
2022-12-25T01:31:12.058Z,9.10
2022-12-25T01:33:40.932Z,10.40
2022-12-25T01:36:25.405Z,7.70
2022-12-25T01:38:53.929Z,9.70
2022-12-25T01:41:25.083Z,9.23
2022-12-25T01:44:36.221Z,7.83
2022-12-25T01:47:05.052Z,7.73
2022-12-25T01:49:36.338Z,8.67
2022-12-25T01:52:10.704Z,7.43
2022-12-25T01:54:52.929Z,8.83
2022-12-25T01:57:26.726Z,9.03
2022-12-25T01:59:55.217Z,10.70
2022-12-25T02:02:22.691Z,10.00
2022-12-25T02:05:01.897Z,8.40
2022-12-25T02:07:32.862Z,8.30
2022-12-25T02:09:59.880Z,10.13
2022-12-25T02:12:32.296Z,9.30
2022-12-25T02:15:07.005Z,8.53
2022-12-25T02:18:26.933Z,12.10
2022-12-25T02:21:26.628Z,8.27
2022-12-25T02:24:17.135Z,8.30
2022-12-25T02:27:11.302Z,9.30
2022-12-25T02:30:11.320Z,9.30
2022-12-25T02:33:20.613Z,9.00
2022-12-25T02:35:53.716Z,8.13
2022-12-25T02:38:36.881Z,10.43
2022-12-25T02:41:16.004Z,10.47
2022-12-25T02:44:05.081Z,9.27
2022-12-25T02:46:52.016Z,13.60
2022-12-25T02:49:45.643Z,9.83
2022-12-25T02:52:37.783Z,11.17
2022-12-25T02:55:35.779Z,10.37
2022-12-25T02:58:36.457Z,10.70
2022-12-25T03:01:29.343Z,9.10
2022-12-25T03:04:20.486Z,9.63
2022-12-25T03:07:15.552Z,8.13
2022-12-25T03:10:27.197Z,9.80
2022-12-25T03:13:09.798Z,8.03
2022-12-25T03:15:56.023Z,7.60
2022-12-25T03:18:27.745Z,8.47
2022-12-25T03:21:14.006Z,9.30
2022-12-25T03:24:02.251Z,7.50
2022-12-25T03:26:48.760Z,9.00
2022-12-25T03:29:35.687Z,8.07
2022-12-25T03:32:36.220Z,8.23
2022-12-25T03:35:30.816Z,7.37
2022-12-25T03:38:49.627Z,9.20
2022-12-25T03:41:34.866Z,7.70
2022-12-25T03:44:59.749Z,7.10
2022-12-25T03:47:54.540Z,7.80
2022-12-25T03:51:14.824Z,9.70
2022-12-25T03:54:09.356Z,6.40
2022-12-25T03:56:57.726Z,7.10
2022-12-25T03:59:43.597Z,7.20
2022-12-25T04:02:29.563Z,7.67
2022-12-25T04:05:15.509Z,9.50
2022-12-25T04:08:00.924Z,7.87
2022-12-25T04:10:46.284Z,11.47
2022-12-25T04:13:32.418Z,14.30
2022-12-25T04:16:18.402Z,13.57
2022-12-25T04:19:04.256Z,10.53
2022-12-25T04:21:49.467Z,10.80
2022-12-25T04:24:35.333Z,11.80
2022-12-25T04:27:20.666Z,10.50
2022-12-25T04:30:06.069Z,10.80
2022-12-25T04:32:51.552Z,7.83
2022-12-25T04:35:36.928Z,7.60
2022-12-25T04:38:03.804Z,8.23
2022-12-25T04:40:30.668Z,9.47
2022-12-25T04:42:57.584Z,9.37
2022-12-25T04:45:24.493Z,9.77
2022-12-25T04:47:51.512Z,6.60
2022-12-25T04:50:18.732Z,6.37
2022-12-25T04:52:45.665Z,7.20
2022-12-25T04:55:12.717Z,9.37
2022-12-25T04:57:40.265Z,7.50
2022-12-25T05:00:08.132Z,6.47
2022-12-25T05:02:35.167Z,7.23
2022-12-25T05:05:02.461Z,7.20
2022-12-25T05:07:29.586Z,6.83
2022-12-25T05:09:56.555Z,7.33
2022-12-25T05:12:23.680Z,5.80
2022-12-25T05:14:50.544Z,5.97
2022-12-25T05:17:17.469Z,7.00
2022-12-25T05:19:44.373Z,5.57
2022-12-25T05:22:11.251Z,7.23
2022-12-25T05:24:38.770Z,8.50
2022-12-25T05:27:05.646Z,6.53
2022-12-25T05:29:32.669Z,13.17
2022-12-25T05:31:59.563Z,9.17
2022-12-25T05:34:26.441Z,9.30
2022-12-25T05:36:53.416Z,8.03
2022-12-25T05:39:20.495Z,6.90
2022-12-25T05:41:47.371Z,9.63
2022-12-25T05:44:14.383Z,9.23
2022-12-25T05:46:41.360Z,9.00
2022-12-25T05:49:08.780Z,9.37
2022-12-25T05:51:35.828Z,7.80
2022-12-25T05:54:02.694Z,7.00
2022-12-25T05:56:30.008Z,10.23
2022-12-25T05:58:57.534Z,7.90
2022-12-25T06:01:28.774Z,9.00
2022-12-25T06:03:57.275Z,7.93
2022-12-25T06:06:24.324Z,7.93
2022-12-25T06:08:55.022Z,7.80
2022-12-25T06:11:22.300Z,8.30
2022-12-25T06:13:52.910Z,6.47
2022-12-25T06:16:20.642Z,12.40
2022-12-25T06:18:52.195Z,11.53
2022-12-25T06:21:19.194Z,13.87
2022-12-25T06:23:46.422Z,11.37
2022-12-25T06:26:19.552Z,7.37
2022-12-25T06:28:47.318Z,10.83
2022-12-25T06:31:18.883Z,11.13
2022-12-25T06:33:46.523Z,9.20
2022-12-25T06:36:25.781Z,7.37
2022-12-25T06:38:53.735Z,18.90
2022-12-25T06:41:27.048Z,10.97
2022-12-25T06:43:58.108Z,8.17
2022-12-25T06:46:28.146Z,8.43
2022-12-25T06:48:59.375Z,10.63
2022-12-25T06:51:30.801Z,10.23
2022-12-25T06:53:59.408Z,9.20
2022-12-25T06:56:28.335Z,12.00
2022-12-25T06:58:59.011Z,15.20
2022-12-25T07:01:48.027Z,11.83
2022-12-25T07:04:23.669Z,12.40
2022-12-25T07:06:50.569Z,13.30
2022-12-25T07:09:17.455Z,17.23
2022-12-25T07:11:44.739Z,13.67
2022-12-25T07:14:24.264Z,14.07
2022-12-25T07:16:52.050Z,16.33
2022-12-25T07:19:19.261Z,15.67
2022-12-25T07:21:46.365Z,15.80
2022-12-25T07:24:22.000Z,14.50
2022-12-25T07:26:50.945Z,11.00
2022-12-25T07:29:19.630Z,14.77
2022-12-25T07:31:47.323Z,13.37
2022-12-25T07:34:14.243Z,13.83
2022-12-25T07:36:41.096Z,13.17
2022-12-25T07:39:10.336Z,12.90
2022-12-25T07:41:37.381Z,13.60
2022-12-25T07:44:14.744Z,10.20
2022-12-25T07:46:41.849Z,11.47
2022-12-25T07:49:09.611Z,10.73
2022-12-25T07:51:37.022Z,9.83
2022-12-25T07:54:04.098Z,13.43
2022-12-25T07:56:31.155Z,10.83
2022-12-25T07:58:58.225Z,10.40
2022-12-25T08:01:28.519Z,9.07
2022-12-25T08:04:00.305Z,10.17
2022-12-25T08:06:31.666Z,8.60
2022-12-25T08:09:06.743Z,6.77
2022-12-25T08:11:34.002Z,7.77
2022-12-25T08:14:01.222Z,14.63
2022-12-25T08:16:28.306Z,9.67
2022-12-25T08:18:55.219Z,14.27
2022-12-25T08:21:22.436Z,12.27
2022-12-25T08:23:49.687Z,9.27
2022-12-25T08:26:23.032Z,13.50
2022-12-25T08:28:51.459Z,14.70
2022-12-25T08:31:28.117Z,11.73
2022-12-25T08:33:58.244Z,8.73
2022-12-25T08:36:25.433Z,8.73
2022-12-25T08:38:58.525Z,9.13
2022-12-25T08:41:29.775Z,9.70
2022-12-25T08:43:56.693Z,8.97
2022-12-25T08:46:24.207Z,8.97
2022-12-25T08:48:51.188Z,7.90
2022-12-25T08:51:22.152Z,8.50
2022-12-25T08:53:51.406Z,8.83
2022-12-25T08:56:19.606Z,8.10
2022-12-25T08:58:47.052Z,10.33
2022-12-25T09:01:14.614Z,9.50
2022-12-25T09:03:42.971Z,9.83
2022-12-25T09:06:16.345Z,10.20
2022-12-25T09:08:48.691Z,9.23
2022-12-25T09:11:19.293Z,14.80
2022-12-25T09:13:48.054Z,12.10
2022-12-25T09:16:20.294Z,12.23
2022-12-25T09:18:47.818Z,14.73
2022-12-25T09:21:16.657Z,16.23
2022-12-25T09:23:44.268Z,14.00
2022-12-25T09:26:14.926Z,14.33
2022-12-25T09:28:48.406Z,11.03
2022-12-25T09:31:16.154Z,14.40
2022-12-25T09:33:43.116Z,13.33
2022-12-25T09:36:11.466Z,11.10
2022-12-25T09:38:38.590Z,19.70
2022-12-25T09:41:29.603Z,12.10
2022-12-25T09:44:21.683Z,11.50
2022-12-25T09:46:59.291Z,11.87
2022-12-25T09:49:49.997Z,10.23
2022-12-25T09:52:26.334Z,9.97
2022-12-25T09:55:21.186Z,10.73
2022-12-25T09:57:55.931Z,9.50
2022-12-25T10:00:27.822Z,9.40
2022-12-25T10:03:29.437Z,10.50
2022-12-25T10:06:25.189Z,8.87
2022-12-25T10:09:15.954Z,11.20
2022-12-25T10:12:10.805Z,8.40
2022-12-25T10:15:08.110Z,10.70
2022-12-25T10:17:59.394Z,10.43
2022-12-25T10:20:40.688Z,12.40
2022-12-25T10:23:18.052Z,8.70
2022-12-25T10:25:46.214Z,7.20
2022-12-25T10:28:21.328Z,8.60
2022-12-25T10:30:49.979Z,5.87
2022-12-25T10:33:17.488Z,6.87
2022-12-25T10:35:45.443Z,6.17
2022-12-25T10:38:18.900Z,6.83
2022-12-25T10:41:22.075Z,7.40
2022-12-25T10:43:57.166Z,6.93
2022-12-25T10:46:29.550Z,7.17
2022-12-25T10:49:00.576Z,8.60
2022-12-25T10:51:39.617Z,7.67
2022-12-25T10:54:30.459Z,11.30
2022-12-25T10:57:16.294Z,6.90
2022-12-25T10:59:49.775Z,8.67
2022-12-25T11:02:40.768Z,9.63
2022-12-25T11:05:14.227Z,6.80
2022-12-25T11:07:50.980Z,6.70
2022-12-25T11:10:44.007Z,10.80
2022-12-25T11:13:47.481Z,11.50
2022-12-25T11:16:26.165Z,9.27
2022-12-25T11:18:54.954Z,8.50
2022-12-25T11:21:26.864Z,7.07
2022-12-25T11:24:05.212Z,7.03
2022-12-25T11:26:53.052Z,10.20
2022-12-25T11:29:50.207Z,6.10
2022-12-25T11:32:30.525Z,6.60
2022-12-25T11:34:59.492Z,6.50
2022-12-25T11:37:48.192Z,6.37
2022-12-25T11:40:25.515Z,5.63
2022-12-25T11:43:12.359Z,5.20
2022-12-25T11:45:46.289Z,5.80
2022-12-25T11:48:31.590Z,5.60
2022-12-25T11:51:02.398Z,6.93
2022-12-25T11:53:48.529Z,4.63
2022-12-25T11:56:20.569Z,6.27
2022-12-25T11:59:00.507Z,5.40
2022-12-25T12:01:42.872Z,4.67
2022-12-25T12:04:43.239Z,4.87
2022-12-25T12:07:32.090Z,5.17
2022-12-25T12:10:47.186Z,4.50
2022-12-25T12:13:46.742Z,6.77
2022-12-25T12:16:13.688Z,5.30
2022-12-25T12:18:46.564Z,5.30
2022-12-25T12:21:27.508Z,4.90
2022-12-25T12:24:17.989Z,4.83
2022-12-25T12:26:47.311Z,11.27
2022-12-25T12:29:40.049Z,9.20
2022-12-25T12:32:43.891Z,4.93
2022-12-25T12:35:18.939Z,9.90
2022-12-25T12:38:14.562Z,5.50
2022-12-25T12:40:51.984Z,9.03
2022-12-25T12:43:52.895Z,8.83
2022-12-25T12:46:39.881Z,6.43
2022-12-25T12:49:35.005Z,6.10
2022-12-25T12:52:30.600Z,7.43
2022-12-25T12:55:16.971Z,6.17
2022-12-25T12:57:43.912Z,7.30
2022-12-25T13:00:21.236Z,6.43
2022-12-25T13:03:24.569Z,6.00
2022-12-25T13:06:14.722Z,7.80
2022-12-25T13:09:10.804Z,6.00
2022-12-25T13:11:43.969Z,5.47
2022-12-25T13:14:20.310Z,5.67
2022-12-25T13:16:51.560Z,5.33
2022-12-25T13:19:25.930Z,3.43
2022-12-25T13:22:00.448Z,4.70
2022-12-25T13:24:34.282Z,4.53
2022-12-25T13:27:02.379Z,5.37
2022-12-25T13:29:30.716Z,3.93
2022-12-25T13:32:03.869Z,5.17
2022-12-25T13:34:41.467Z,4.10
2022-12-25T13:37:16.298Z,4.63
2022-12-25T13:40:03.553Z,4.33
2022-12-25T13:42:34.398Z,3.70
2022-12-25T13:45:08.174Z,4.13
2022-12-25T13:47:40.627Z,3.00
2022-12-25T13:50:23.536Z,3.47
2022-12-25T13:52:52.364Z,2.80
2022-12-25T13:55:26.410Z,3.07
2022-12-25T13:58:04.457Z,2.10
2022-12-25T14:00:53.181Z,2.47
2022-12-25T14:03:42.911Z,2.10
2022-12-25T14:06:29.462Z,2.50
2022-12-25T14:08:58.819Z,3.00
2022-12-25T14:11:29.161Z,2.20
2022-12-25T14:14:06.701Z,2.93
2022-12-25T14:16:34.895Z,2.30
2022-12-25T14:19:03.609Z,3.40
2022-12-25T14:21:49.224Z,2.40
2022-12-25T14:24:17.406Z,3.33
2022-12-25T14:26:44.728Z,4.40
2022-12-25T14:29:18.189Z,2.27
2022-12-25T14:31:47.740Z,2.60
2022-12-25T14:34:21.810Z,2.70
2022-12-25T14:36:49.549Z,2.50
2022-12-25T14:39:47.128Z,2.20
2022-12-25T14:42:22.227Z,1.77
2022-12-25T14:45:24.794Z,2.23
2022-12-25T14:48:00.872Z,2.83
2022-12-25T14:50:41.205Z,2.57
2022-12-25T14:53:20.893Z,2.47
2022-12-25T14:55:54.994Z,3.33
2022-12-25T14:58:26.780Z,3.53
2022-12-25T15:01:00.954Z,3.80
2022-12-25T15:03:34.837Z,2.60
2022-12-25T15:06:03.188Z,3.53
2022-12-25T15:08:32.434Z,3.67
2022-12-25T15:11:02.201Z,4.50
2022-12-25T15:13:31.015Z,4.00
2022-12-25T15:16:09.059Z,3.50
2022-12-25T15:18:43.539Z,2.40
2022-12-25T15:21:25.842Z,3.20
2022-12-25T15:23:55.167Z,4.43
2022-12-25T15:26:22.795Z,3.07
2022-12-25T15:28:49.960Z,4.40
2022-12-25T15:31:25.315Z,4.70
2022-12-25T15:33:57.506Z,2.37
2022-12-25T15:36:26.047Z,3.17
2022-12-25T15:38:54.105Z,2.60
2022-12-25T15:41:46.374Z,6.40
2022-12-25T15:44:14.252Z,3.80
2022-12-25T15:46:41.513Z,2.43
2022-12-25T15:49:13.876Z,3.23
2022-12-25T15:51:42.239Z,2.60
2022-12-25T15:54:10.004Z,3.27
2022-12-25T15:56:53.800Z,2.03
2022-12-25T15:59:21.958Z,2.03
2022-12-25T16:01:55.504Z,2.03
2022-12-25T16:04:24.440Z,4.47
2022-12-25T16:06:52.405Z,2.70
2022-12-25T16:09:20.532Z,6.47
2022-12-25T16:11:49.025Z,2.30
2022-12-25T16:14:16.332Z,2.33
2022-12-25T16:16:43.303Z,2.10
2022-12-25T16:19:10.245Z,2.10
2022-12-25T16:21:44.171Z,3.10
2022-12-25T16:24:11.879Z,2.60
2022-12-25T16:26:38.954Z,2.33
2022-12-25T16:29:07.536Z,3.10
2022-12-25T16:31:39.191Z,2.00
2022-12-25T16:34:07.743Z,1.87
2022-12-25T16:36:35.742Z,2.10
2022-12-25T16:39:03.928Z,4.00
2022-12-25T16:41:30.921Z,2.70
2022-12-25T16:43:57.854Z,1.80
2022-12-25T16:46:24.812Z,2.20
2022-12-25T16:48:51.941Z,2.80
2022-12-25T16:51:21.230Z,2.00
2022-12-25T16:53:48.528Z,3.00
2022-12-25T16:56:20.453Z,2.03
2022-12-25T16:58:48.152Z,2.10
2022-12-25T17:01:18.637Z,3.13
2022-12-25T17:03:46.741Z,2.63
2022-12-25T17:06:23.148Z,3.67
2022-12-25T17:08:52.297Z,2.70
2022-12-25T17:11:24.264Z,2.50
2022-12-25T17:13:51.274Z,2.40
2022-12-25T17:16:22.856Z,2.60
2022-12-25T17:18:58.630Z,2.07
2022-12-25T17:21:26.599Z,2.20
2022-12-25T17:24:01.231Z,2.67
2022-12-25T17:26:30.753Z,5.73
2022-12-25T17:28:58.191Z,2.00
2022-12-25T17:31:25.478Z,3.10
2022-12-25T17:33:52.527Z,2.47
2022-12-25T17:36:21.488Z,2.60
2022-12-25T17:38:49.082Z,3.30
2022-12-25T17:41:18.732Z,2.23
2022-12-25T17:43:46.664Z,3.53
2022-12-25T17:46:15.978Z,2.53
2022-12-25T17:48:43.261Z,2.03
2022-12-25T17:51:16.009Z,3.17
2022-12-25T17:53:48.644Z,2.40
2022-12-25T17:56:17.662Z,3.13
2022-12-25T17:58:49.237Z,2.20
2022-12-25T18:01:17.147Z,2.47
2022-12-25T18:03:45.727Z,2.30
2022-12-25T18:06:17.223Z,2.13
2022-12-25T18:08:45.970Z,4.60
2022-12-25T18:11:17.020Z,2.63
2022-12-25T18:13:48.388Z,2.17
2022-12-25T18:16:16.408Z,2.10
2022-12-25T18:18:51.119Z,3.27
2022-12-25T18:21:21.062Z,4.53
2022-12-25T18:23:48.649Z,2.00
2022-12-25T18:26:15.749Z,2.07
2022-12-25T18:28:43.901Z,2.73
2022-12-25T18:31:23.342Z,2.77
2022-12-25T18:33:51.701Z,3.53
2022-12-25T18:36:23.699Z,3.53
2022-12-25T18:38:52.687Z,2.97
2022-12-25T18:41:21.295Z,2.73
2022-12-25T18:43:52.916Z,2.87
2022-12-25T18:46:23.859Z,2.07
2022-12-25T18:48:51.630Z,3.77
2022-12-25T18:51:18.720Z,2.20
2022-12-25T18:53:45.912Z,3.57
2022-12-25T18:56:15.860Z,3.13
2022-12-25T18:58:43.487Z,2.80
2022-12-25T19:01:17.515Z,5.80
2022-12-25T19:03:46.115Z,3.17
2022-12-25T19:06:26.466Z,2.90
2022-12-25T19:08:54.626Z,3.50
2022-12-25T19:11:22.830Z,2.63
2022-12-25T19:13:50.225Z,3.13
2022-12-25T19:16:17.818Z,2.70
2022-12-25T19:18:45.915Z,3.63
2022-12-25T19:21:12.935Z,2.90
2022-12-25T19:23:41.051Z,2.63
2022-12-25T19:26:10.362Z,3.40
2022-12-25T19:28:38.691Z,2.80
2022-12-25T19:31:07.911Z,3.80
2022-12-25T19:33:38.344Z,3.70
2022-12-25T19:36:16.303Z,3.07
2022-12-25T19:38:44.378Z,3.37
2022-12-25T19:41:18.137Z,3.30
2022-12-25T19:43:49.966Z,3.30
2022-12-25T19:46:32.170Z,2.90
2022-12-25T19:49:04.235Z,2.33
2022-12-25T19:51:36.253Z,3.50
2022-12-25T19:54:05.337Z,3.47
2022-12-25T19:56:33.722Z,3.67
2022-12-25T19:59:01.164Z,3.40
2022-12-25T20:01:30.087Z,3.00
2022-12-25T20:03:57.595Z,3.63
2022-12-25T20:06:29.819Z,2.90
2022-12-25T20:09:08.927Z,3.63
2022-12-25T20:11:37.703Z,3.80
2022-12-25T20:14:07.184Z,4.03
2022-12-25T20:16:38.111Z,3.73
2022-12-25T20:19:06.208Z,4.87
2022-12-25T20:21:33.539Z,5.70
2022-12-25T20:24:00.721Z,4.40
2022-12-25T20:26:31.922Z,5.23
2022-12-25T20:28:59.438Z,2.97
2022-12-25T20:31:31.115Z,2.73
2022-12-25T20:34:04.019Z,4.67
2022-12-25T20:36:36.339Z,6.20
2022-12-25T20:39:09.312Z,4.10
2022-12-25T20:41:37.324Z,5.63
2022-12-25T20:44:06.423Z,4.00
2022-12-25T20:46:33.419Z,6.50
2022-12-25T20:49:02.376Z,5.50
2022-12-25T20:51:29.381Z,4.90
2022-12-25T20:53:57.029Z,5.20
2022-12-25T20:56:27.107Z,4.50
2022-12-25T20:58:59.856Z,4.67
2022-12-25T21:01:30.097Z,7.03
2022-12-25T21:03:58.302Z,4.30
2022-12-25T21:06:25.612Z,5.93
2022-12-25T21:08:52.990Z,5.07
2022-12-25T21:11:21.349Z,6.00
2022-12-25T21:13:48.884Z,5.87
2022-12-25T21:16:20.418Z,5.33
2022-12-25T21:18:49.365Z,6.37
2022-12-25T21:21:16.401Z,12.17
2022-12-25T21:23:43.543Z,5.60
2022-12-25T21:26:23.460Z,9.07
2022-12-25T21:28:55.034Z,8.60
2022-12-25T21:31:23.726Z,8.40
2022-12-25T21:33:54.784Z,12.40
2022-12-25T21:36:31.769Z,8.40
2022-12-25T21:39:07.868Z,7.80
2022-12-25T21:41:37.673Z,7.53
2022-12-25T21:44:05.452Z,8.37
2022-12-25T21:46:32.675Z,7.60
2022-12-25T21:49:00.454Z,7.03
2022-12-25T21:51:52.297Z,6.77
2022-12-25T21:54:23.777Z,7.93
2022-12-25T21:56:51.192Z,7.90
2022-12-25T21:59:21.937Z,6.60
2022-12-25T22:01:50.854Z,7.60
2022-12-25T22:04:20.448Z,9.00
2022-12-25T22:07:06.799Z,5.87
2022-12-25T22:09:33.932Z,6.60
2022-12-25T22:12:19.798Z,7.80
2022-12-25T22:15:02.449Z,7.07
2022-12-25T22:17:58.190Z,5.50
2022-12-25T22:20:38.085Z,6.20
2022-12-25T22:23:05.308Z,6.03
2022-12-25T22:25:32.265Z,7.30
2022-12-25T22:28:00.222Z,5.07
2022-12-25T22:30:28.788Z,4.37
2022-12-25T22:32:56.123Z,6.47
2022-12-25T22:35:23.606Z,4.37
2022-12-25T22:37:51.034Z,6.60
2022-12-25T22:40:19.788Z,5.00
2022-12-25T22:42:47.038Z,4.87
2022-12-25T22:45:14.587Z,5.40
2022-12-25T22:47:41.925Z,4.23
2022-12-25T22:50:11.029Z,5.17
2022-12-25T22:52:38.681Z,5.53
2022-12-25T22:55:07.918Z,4.97
2022-12-25T22:57:35.174Z,5.13
2022-12-25T23:00:02.895Z,4.37
2022-12-25T23:02:29.949Z,5.27
2022-12-25T23:04:57.085Z,5.07
2022-12-25T23:07:24.041Z,4.90
2022-12-25T23:09:52.180Z,5.23
2022-12-25T23:12:38.043Z,5.47
2022-12-25T23:15:05.784Z,4.43
2022-12-25T23:17:51.196Z,5.20
2022-12-25T23:20:36.409Z,5.63
2022-12-25T23:23:21.751Z,4.27
2022-12-25T23:26:07.406Z,4.93
2022-12-25T23:28:58.858Z,4.60
2022-12-25T23:31:39.625Z,5.17
2022-12-25T23:34:08.094Z,5.60
2022-12-25T23:36:35.601Z,5.50
2022-12-25T23:39:09.745Z,6.73
2022-12-25T23:41:39.397Z,4.60
2022-12-25T23:44:07.700Z,6.10
2022-12-25T23:46:34.882Z,8.13
2022-12-25T23:49:02.025Z,5.00
2022-12-25T23:51:29.229Z,8.77
2022-12-25T23:53:56.516Z,6.10
2022-12-25T23:56:23.440Z,5.27
2022-12-25T23:58:52.000Z,5.20
